Time;durP1;ratioP1;P1;durP2;ratioP2;P2;SDS_P1;SDS_P2;PMS_P1;PMS_P2;Temp;Humidity;BMP_temperature;BMP_pressure;BME280_temperature;BME280_humidity;BME280_pressure;Samples;Min_cycle;Max_cycle;Signal;HPM_P1;HPM_P2
2022/06/05 00:01:48;;;;;;;2.80;2.20;;;;;;;3.77;87.96;101128.88;5034165;28;20069;-59
2022/06/05 00:04:31;;;;;;;6.35;2.67;;;;;;;3.67;87.58;101112.25;5021947;28;20049;-59
2022/06/05 00:07:09;;;;;;;3.20;2.30;;;;;;;3.86;86.37;101131.69;5020167;28;20371;-60
2022/06/05 00:09:48;;;;;;;3.75;2.15;;;;;;;4.05;86.80;101127.84;5019810;28;20065;-60
2022/06/05 00:12:23;;;;;;;2.90;2.22;;;;;;;4.04;85.44;101112.28;5020056;28;20117;-60
2022/06/05 00:14:54;;;;;;;3.42;1.98;;;;;;;4.08;85.64;101130.50;5020066;28;20355;-60
2022/06/05 00:17:24;;;;;;;6.32;2.70;;;;;;;4.07;85.28;101130.47;5020219;28;20064;-60
2022/06/05 00:19:55;;;;;;;2.92;1.90;;;;;;;3.96;84.91;101118.97;5019964;28;20060;-60
2022/06/05 00:22:26;;;;;;;4.57;2.22;;;;;;;3.86;84.54;101103.25;5019913;28;20218;-60
2022/06/05 00:24:56;;;;;;;4.50;2.60;;;;;;;3.85;85.83;101129.94;5024346;28;20504;-60
2022/06/05 00:27:34;;;;;;;3.95;2.63;;;;;;;4.00;85.96;101129.44;5033281;28;20103;-60
2022/06/05 00:30:11;;;;;;;5.68;2.00;;;;;;;3.93;85.12;101134.44;5039603;28;20359;-60
2022/06/05 00:32:45;;;;;;;2.33;1.65;;;;;;;3.82;85.41;101116.94;5039600;28;20049;-60
2022/06/05 00:35:17;;;;;;;3.42;1.90;;;;;;;3.89;86.20;101129.19;5039386;28;20053;-60
2022/06/05 00:38:01;;;;;;;6.68;2.22;;;;;;;4.10;85.66;101126.25;5038284;28;20080;-60
2022/06/05 00:40:40;;;;;;;5.55;2.20;;;;;;;4.12;85.25;101121.13;5038643;28;20041;-60
2022/06/05 00:43:16;;;;;;;2.72;2.10;;;;;;;3.96;85.92;101139.66;5034431;28;20072;-60
2022/06/05 00:45:47;;;;;;;3.75;1.83;;;;;;;4.05;86.39;101129.56;5027942;28;20531;-58
2022/06/05 00:48:18;;;;;;;2.97;1.58;;;;;;;4.01;85.13;101132.91;5019394;28;20054;-61
2022/06/05 00:50:49;;;;;;;5.38;1.98;;;;;;;4.07;85.98;101139.09;5019160;28;20104;-60
2022/06/05 00:53:19;;;;;;;3.95;1.80;;;;;;;4.24;85.13;101124.00;5018526;28;20099;-60
2022/06/05 00:55:52;;;;;;;3.60;1.42;;;;;;;4.39;84.25;101110.50;5024344;28;20108;-60
2022/06/05 00:58:25;;;;;;;4.38;1.50;;;;;;;4.35;84.04;101137.16;5025353;28;20054;-59
2022/06/05 01:00:56;;;;;;;2.60;1.50;;;;;;;4.44;84.08;101124.44;5024651;28;20042;-60
2022/06/05 01:03:27;;;;;;;2.60;2.00;;;;;;;4.60;84.92;101136.00;5024072;28;20053;-59
2022/06/05 01:05:57;;;;;;;3.90;1.50;;;;;;;4.76;84.17;101122.53;5024836;28;20378;-59
2022/06/05 01:08:28;;;;;;;3.72;2.15;;;;;;;4.79;83.37;101136.38;5024019;28;20061;-60
2022/06/05 01:11:09;;;;;;;3.28;1.77;;;;;;;4.57;83.65;101138.53;5023742;28;20161;-60
2022/06/05 01:13:54;;;;;;;4.70;2.03;;;;;;;4.42;84.48;101145.91;5025297;28;20071;-60
2022/06/05 01:16:31;;;;;;;3.63;2.30;;;;;;;4.58;85.28;101136.81;5025211;28;20045;-60
2022/06/05 01:19:13;;;;;;;4.70;2.85;;;;;;;4.70;84.26;101137.06;5024459;28;20225;-61
2022/06/05 01:22:32;;;;;;;5.65;2.60;;;;;;;4.59;83.52;101136.81;5024256;28;20049;-60
2022/06/05 01:25:18;;;;;;;4.38;1.98;;;;;;;4.40;83.53;101137.28;5024397;28;20124;-60
2022/06/05 01:27:56;;;;;;;3.97;2.65;;;;;;;4.40;83.99;101147.63;5023990;28;20065;-60
2022/06/05 01:30:27;;;;;;;2.40;1.90;;;;;;;4.24;84.32;101104.97;5024272;28;20053;-63
2022/06/05 01:33:08;;;;;;;1.95;1.73;;;;;;;4.61;83.36;101137.72;5024738;28;20059;-60
2022/06/05 01:35:43;;;;;;;2.63;1.42;;;;;;;4.66;82.96;101130.94;5023421;28;20058;-60
2022/06/05 01:38:18;;;;;;;1.60;1.45;;;;;;;4.71;82.87;101133.63;5023310;28;20064;-59
2022/06/05 01:40:53;;;;;;;5.20;1.85;;;;;;;4.82;83.46;101131.25;5024512;28;20452;-61
2022/06/05 01:43:28;;;;;;;4.03;1.98;;;;;;;4.72;82.68;101079.31;5025024;28;20121;-61
2022/06/05 01:46:07;;;;;;;3.33;2.00;;;;;;;4.96;83.03;101114.28;5024210;28;20379;-61
2022/06/05 01:48:42;;;;;;;2.95;1.92;;;;;;;5.03;81.73;101131.72;5022262;28;20061;-60
2022/06/05 01:51:19;;;;;;;1.70;1.60;;;;;;;5.01;82.30;101123.03;5022557;28;20061;-60
2022/06/05 01:53:54;;;;;;;4.75;1.83;;;;;;;4.54;81.38;101022.84;5024015;28;20073;-60
2022/06/05 01:56:28;;;;;;;6.65;2.40;;;;;;;5.29;81.68;101128.75;5023911;28;20348;-60
2022/06/05 01:59:12;;;;;;;2.67;1.80;;;;;;;5.18;82.36;101120.78;5023241;28;20054;-60
2022/06/05 02:01:49;;;;;;;3.58;2.22;;;;;;;5.11;82.26;101124.09;5022676;28;20053;-59
2022/06/05 02:04:25;;;;;;;5.20;1.92;;;;;;;5.23;82.01;101113.09;5022882;28;20095;-60
2022/06/05 02:07:00;;;;;;;4.88;2.40;;;;;;;5.29;81.73;101115.78;5023901;28;20052;-59
2022/06/05 02:09:35;;;;;;;6.75;2.75;;;;;;;5.35;82.38;101118.50;5022838;28;20069;-60
2022/06/05 02:12:06;;;;;;;5.35;2.10;;;;;;;5.57;81.35;101115.47;5022718;28;20069;-59
2022/06/05 02:14:42;;;;;;;4.03;2.35;;;;;;;5.83;81.89;101117.63;5023624;28;20344;-60
2022/06/05 02:17:13;;;;;;;3.88;2.03;;;;;;;5.94;79.43;101116.13;5023926;28;21002;-59
2022/06/05 02:19:44;;;;;;;4.35;1.70;;;;;;;5.92;78.70;101122.09;5024103;28;20065;-59
2022/06/05 02:22:20;;;;;;;5.55;2.42;;;;;;;5.45;80.71;101110.06;5024003;28;20053;-60
2022/06/05 02:24:51;;;;;;;4.22;1.83;;;;;;;5.59;80.53;101112.88;5022625;28;20228;-60
2022/06/05 02:27:24;;;;;;;2.15;1.42;;;;;;;5.64;80.50;101113.84;5023731;28;20065;-60
2022/06/05 02:29:58;;;;;;;2.78;1.50;;;;;;;5.67;78.78;101105.25;5023475;28;20692;-61
2022/06/05 02:32:57;;;;;;;1.90;1.55;;;;;;;5.94;79.75;101103.16;5022995;28;20050;-60
2022/06/05 02:35:37;;;;;;;2.55;1.60;;;;;;;6.11;79.35;101092.16;5023851;28;20116;-60
2022/06/05 02:38:26;;;;;;;1.67;1.55;;;;;;;6.11;78.13;101118.09;5022848;28;20050;-60
2022/06/05 02:41:03;;;;;;;6.88;1.83;;;;;;;6.29;77.71;101107.13;5022395;28;20092;-59
2022/06/05 02:43:44;;;;;;;4.35;2.22;;;;;;;6.25;78.01;101111.41;5023575;28;20109;-60
2022/06/05 02:46:23;;;;;;;8.73;2.55;;;;;;;5.83;77.94;101118.50;5023124;28;20054;-60
2022/06/05 02:49:04;;;;;;;3.65;2.13;;;;;;;5.75;78.57;101109.72;5023266;28;20057;-59
2022/06/05 02:51:39;;;;;;;4.40;2.53;;;;;;;5.43;78.42;101008.06;5022751;28;20340;-60
2022/06/05 02:54:09;;;;;;;3.92;2.60;;;;;;;6.17;77.88;101113.03;5021056;28;20054;-60
2022/06/05 02:56:46;;;;;;;3.65;2.70;;;;;;;6.19;78.90;101116.47;5022072;28;20629;-60
2022/06/05 02:59:17;;;;;;;6.50;2.80;;;;;;;6.16;78.07;101129.41;5020302;28;21032;-60
2022/06/05 03:04:37;;;;;;;4.30;1.83;;;;;;;6.59;76.98;101097.19;5021428;28;20132;-60
2022/06/05 03:07:08;;;;;;;5.43;1.83;;;;;;;6.63;76.52;101100.69;5022614;28;20099;-60
2022/06/05 03:09:38;;;;;;;3.92;1.90;;;;;;;6.60;75.85;101108.44;5022841;28;20080;-60
2022/06/05 03:12:10;;;;;;;4.65;2.47;;;;;;;6.58;77.21;101099.75;5022697;28;20411;-60
2022/06/05 03:14:41;;;;;;;2.75;2.28;;;;;;;6.54;76.46;101092.75;5020553;28;20149;-60
2022/06/05 03:17:13;;;;;;;3.70;2.05;;;;;;;6.66;76.38;101108.50;5022339;28;20054;-60
2022/06/05 03:19:44;;;;;;;4.45;2.33;;;;;;;6.70;77.01;101090.38;5019790;28;20053;-60
2022/06/05 03:22:14;;;;;;;7.93;2.25;;;;;;;6.65;75.54;101098.97;5022636;28;20121;-59
2022/06/05 03:24:45;;;;;;;3.83;1.95;;;;;;;6.58;76.07;101094.56;5022761;28;20147;-59
2022/06/05 03:27:15;;;;;;;4.85;2.25;;;;;;;6.68;75.79;101099.00;5022915;28;20060;-60
2022/06/05 03:29:46;;;;;;;6.07;2.50;;;;;;;6.40;76.38;101111.63;5023411;28;20073;-59
2022/06/05 03:32:18;;;;;;;5.93;2.25;;;;;;;6.40;77.51;101105.56;5021967;28;20673;-60
2022/06/05 03:34:48;;;;;;;2.88;1.98;;;;;;;6.57;76.56;101108.41;5023188;28;21001;-60
2022/06/05 03:37:19;;;;;;;6.10;2.50;;;;;;;6.62;76.60;101101.53;5022958;28;20239;-58
2022/06/05 03:39:49;;;;;;;5.78;2.42;;;;;;;6.47;76.03;101103.06;5023203;28;20045;-60
2022/06/05 03:42:20;;;;;;;3.05;1.73;;;;;;;6.68;75.02;101107.66;5022757;28;20045;-60
2022/06/05 03:44:50;;;;;;;4.38;2.63;;;;;;;6.67;76.60;101115.47;5022877;28;20096;-59
2022/06/05 03:47:22;;;;;;;7.68;2.70;;;;;;;6.60;75.14;101090.25;5022628;28;20215;-60
2022/06/05 03:49:53;;;;;;;9.00;2.30;;;;;;;6.51;75.43;101113.50;5022901;28;20066;-60
2022/06/05 03:52:23;;;;;;;9.85;2.97;;;;;;;6.59;75.64;101111.88;5022456;28;20152;-59
2022/06/05 03:54:54;;;;;;;4.95;2.13;;;;;;;6.71;76.57;101112.03;5021876;28;20113;-60
2022/06/05 03:57:24;;;;;;;10.65;2.92;;;;;;;6.60;74.77;101113.63;5022875;28;20053;-60
2022/06/05 03:59:54;;;;;;;6.65;2.53;;;;;;;6.61;76.11;101116.22;5022440;28;20340;-61
2022/06/05 04:02:27;;;;;;;4.70;1.92;;;;;;;6.58;73.90;101099.75;5023045;28;20364;-60
2022/06/05 04:04:58;;;;;;;3.58;2.40;;;;;;;6.77;75.90;101106.94;5021498;28;20120;-60
2022/06/05 04:07:28;;;;;;;5.72;2.17;;;;;;;6.80;74.24;101086.19;5021570;28;20053;-61
2022/06/05 04:09:59;;;;;;;4.07;2.33;;;;;;;6.69;73.95;101088.66;5021030;28;20315;-60
2022/06/05 04:12:29;;;;;;;4.47;2.42;;;;;;;6.62;75.41;101111.94;5023710;28;20303;-60
2022/06/05 04:15:01;;;;;;;3.03;2.08;;;;;;;6.38;74.36;101069.19;5025878;28;20504;-60
2022/06/05 04:17:33;;;;;;;5.32;2.50;;;;;;;6.51;75.08;101098.78;5025095;28;20054;-61
2022/06/05 04:20:05;;;;;;;7.22;2.47;;;;;;;6.61;75.28;101098.03;5026189;28;20521;-60
2022/06/05 04:22:36;;;;;;;8.15;2.65;;;;;;;6.64;74.15;101103.31;5025190;28;20050;-60
2022/06/05 04:25:08;;;;;;;4.85;2.20;;;;;;;6.74;73.91;101096.50;5025262;28;20061;-60
2022/06/05 04:27:38;;;;;;;4.88;2.22;;;;;;;6.86;74.79;101096.66;5024761;28;20063;-60
2022/06/05 04:30:09;;;;;;;3.65;2.00;;;;;;;6.83;73.76;101101.78;5025483;28;20084;-60
2022/06/05 04:32:41;;;;;;;3.30;2.38;;;;;;;6.62;73.94;101098.94;5026094;28;20067;-60
2022/06/05 04:35:13;;;;;;;4.90;2.30;;;;;;;6.62;74.81;101096.34;5026141;28;20117;-60
2022/06/05 04:37:43;;;;;;;5.38;2.75;;;;;;;6.73;75.80;101097.34;5024986;28;20061;-60
2022/06/05 04:40:13;;;;;;;7.47;3.13;;;;;;;6.69;74.75;101088.66;5025945;28;20060;-60
2022/06/05 04:42:44;;;;;;;9.40;3.13;;;;;;;6.64;74.64;101107.59;5025168;28;20057;-60
2022/06/05 04:45:14;;;;;;;6.70;2.10;;;;;;;6.61;73.86;101084.19;5025389;28;20514;-59
2022/06/05 04:47:46;;;;;;;7.53;2.60;;;;;;;6.83;74.05;101086.22;5025173;28;20460;-59
2022/06/05 04:50:17;;;;;;;7.70;3.30;;;;;;;6.85;74.24;101087.09;5025755;28;20053;-59
2022/06/05 04:52:48;;;;;;;3.50;2.33;;;;;;;6.80;73.81;101101.75;5025890;28;20274;-60
2022/06/05 04:55:18;;;;;;;6.57;2.53;;;;;;;6.62;74.09;101096.34;5025542;28;20297;-60
2022/06/05 04:57:49;;;;;;;6.13;3.30;;;;;;;6.84;75.20;101098.38;5024894;28;20064;-59
2022/06/05 05:00:37;;;;;;;4.03;2.38;;;;;;;6.75;74.31;101098.25;5025001;28;20084;-60
2022/06/05 05:03:09;;;;;;;5.35;2.22;;;;;;;6.85;73.85;101114.81;5024038;28;20076;-60
2022/06/05 05:05:41;;;;;;;6.00;2.58;;;;;;;6.83;73.80;101100.94;5024414;28;20084;-61
2022/06/05 05:08:11;;;;;;;7.15;2.40;;;;;;;6.92;73.10;101095.84;5024306;28;20067;-60
2022/06/05 05:10:42;;;;;;;4.90;2.55;;;;;;;6.98;73.93;101095.06;5024564;28;20390;-60
2022/06/05 05:13:12;;;;;;;5.43;2.22;;;;;;;6.85;73.31;101084.50;5020875;28;20057;-60
2022/06/05 05:15:43;;;;;;;3.85;2.40;;;;;;;6.81;73.97;101082.72;5024737;28;20072;-60
2022/06/05 05:18:15;;;;;;;4.88;2.00;;;;;;;6.97;73.11;101082.94;5025000;28;20057;-60
2022/06/05 05:20:45;;;;;;;7.45;1.83;;;;;;;6.98;73.69;101079.47;5025060;28;20358;-60
2022/06/05 05:23:16;;;;;;;6.32;2.40;;;;;;;7.10;74.18;101084.78;5024029;28;20065;-60
2022/06/05 05:25:46;;;;;;;6.63;1.90;;;;;;;7.23;71.82;101070.19;5024425;28;20141;-61
2022/06/05 05:28:17;;;;;;;5.85;1.80;;;;;;;7.45;72.55;101082.56;5025158;28;20057;-60
2022/06/05 05:30:47;;;;;;;2.10;1.90;;;;;;;7.31;72.27;101079.84;5024571;28;20147;-60
2022/06/05 05:33:19;;;;;;;4.28;1.58;;;;;;;7.19;72.31;101079.72;5023440;28;20061;-61
2022/06/05 05:35:50;;;;;;;3.13;1.88;;;;;;;7.12;73.14;101083.09;5024148;28;20131;-60
2022/06/05 05:38:20;;;;;;;2.97;2.30;;;;;;;7.30;72.70;101077.22;5022371;28;20056;-59
2022/06/05 05:43:39;;;;;;;3.55;2.20;;;;;;;7.68;71.18;101074.94;5024602;28;20054;-60
2022/06/05 05:46:10;;;;;;;4.85;2.40;;;;;;;7.68;70.67;101061.94;5024502;28;20088;-59
2022/06/05 05:48:43;;;;;;;6.63;2.63;;;;;;;7.54;71.39;101072.25;5023162;28;20062;-59
2022/06/05 05:51:14;;;;;;;3.35;2.15;;;;;;;7.39;71.60;101071.22;5024179;28;20057;-58
2022/06/05 05:53:44;;;;;;;5.43;2.00;;;;;;;7.21;71.94;101062.38;5024445;28;20056;-59
2022/06/05 05:56:15;;;;;;;4.10;1.85;;;;;;;7.10;73.06;101064.00;5023696;28;20054;-59
2022/06/05 05:58:46;;;;;;;4.45;2.08;;;;;;;7.47;72.52;101064.38;5024335;28;20068;-60
2022/06/05 06:01:17;;;;;;;3.67;1.80;;;;;;;7.47;71.45;101053.97;5021893;28;20052;-60
2022/06/05 06:03:49;;;;;;;2.95;1.70;;;;;;;7.48;71.32;101066.09;5024471;28;20347;-59
2022/06/05 06:06:24;;;;;;;5.25;1.80;;;;;;;7.33;71.83;101062.50;5024388;28;20232;-58
2022/06/05 06:08:56;;;;;;;10.40;2.67;;;;;;;7.41;73.17;101064.31;5024261;28;20167;-59
2022/06/05 06:11:26;;;;;;;3.40;1.75;;;;;;;7.30;72.28;101054.66;5022050;28;20085;-58
2022/06/05 06:13:57;;;;;;;6.45;2.00;;;;;;;7.08;72.73;101045.78;5023883;28;20057;-58
2022/06/05 06:16:28;;;;;;;4.15;2.00;;;;;;;6.98;73.49;101043.09;5021726;28;20061;-58
2022/06/05 06:19:00;;;;;;;6.32;2.28;;;;;;;6.93;73.13;101018.78;5021951;28;20061;-61
2022/06/05 06:21:31;;;;;;;5.65;2.15;;;;;;;7.06;73.55;101064.81;5020825;28;20121;-59
2022/06/05 06:24:09;;;;;;;6.60;2.53;;;;;;;7.03;73.08;101046.59;5023731;28;20142;-59
2022/06/05 06:26:40;;;;;;;4.72;1.90;;;;;;;6.97;73.49;101042.22;5023608;28;20235;-59
2022/06/05 06:29:11;;;;;;;4.35;1.88;;;;;;;7.08;73.61;101039.72;5023658;28;20390;-59
2022/06/05 06:31:43;;;;;;;2.65;1.63;;;;;;;7.10;72.67;101043.22;5023045;28;20348;-59
2022/06/05 06:34:15;;;;;;;6.75;1.77;;;;;;;7.08;73.18;101034.53;5022594;28;20080;-59
2022/06/05 06:36:48;;;;;;;10.48;1.83;;;;;;;6.98;74.13;101043.09;5021808;28;20056;-59
2022/06/05 06:39:21;;;;;;;16.70;7.57;;;;;;;6.86;74.74;101031.72;5021525;28;20067;-59
2022/06/05 06:41:52;;;;;;;2.88;1.98;;;;;;;6.71;73.81;101026.31;5023020;28;20349;-60
2022/06/05 06:44:22;;;;;;;6.80;2.15;;;;;;;6.60;75.44;101025.34;5022891;28;20078;-59
2022/06/05 06:46:53;;;;;;;4.22;1.98;;;;;;;6.50;75.21;101033.88;5022504;28;20121;-59
2022/06/05 06:49:25;;;;;;;3.42;2.55;;;;;;;6.57;75.95;101040.88;5023840;28;20325;-60
2022/06/05 06:51:56;;;;;;;6.68;2.40;;;;;;;6.65;75.56;101031.47;5022505;28;20050;-60
2022/06/05 06:54:27;;;;;;;4.82;1.80;;;;;;;6.66;74.93;101048.78;5021512;28;20068;-59
2022/06/05 06:56:57;;;;;;;5.28;2.25;;;;;;;6.70;76.13;101037.56;5022273;28;20069;-59
2022/06/05 06:59:37;;;;;;;2.53;1.77;;;;;;;6.68;75.66;101041.88;5021651;28;20321;-59
2022/06/05 07:02:08;;;;;;;2.70;1.65;;;;;;;6.48;75.42;101006.16;5021447;28;20443;-60
2022/06/05 07:04:40;;;;;;;5.53;2.17;;;;;;;6.81;75.23;101045.47;5019723;28;20053;-58
2022/06/05 07:07:11;;;;;;;6.57;2.40;;;;;;;7.04;74.88;101061.31;5022862;28;20092;-58
2022/06/05 07:09:41;;;;;;;3.53;1.85;;;;;;;7.00;73.92;101047.44;5022848;28;20271;-59
2022/06/05 07:12:12;;;;;;;4.03;1.77;;;;;;;6.91;73.61;101044.72;5023344;28;20232;-58
2022/06/05 07:14:42;;;;;;;2.97;2.15;;;;;;;6.80;74.27;101042.03;5021223;28;20120;-60
2022/06/05 07:17:12;;;;;;;7.82;1.98;;;;;;;6.70;74.89;101024.59;5021026;28;20053;-60
2022/06/05 07:19:46;;;;;;;4.47;2.47;;;;;;;6.55;75.87;101043.44;5021061;28;20057;-60
2022/06/05 07:22:24;;;;;;;8.15;2.92;;;;;;;6.57;75.65;101040.88;5020692;28;20127;-59
2022/06/05 07:24:55;;;;;;;9.85;2.85;;;;;;;6.57;75.47;101035.69;5021231;28;20053;-60
2022/06/05 07:27:27;;;;;;;6.50;2.33;;;;;;;6.37;75.80;101012.94;5021765;28;20046;-59
2022/06/05 07:29:58;;;;;;;5.53;2.30;;;;;;;6.39;76.36;101042.41;5022003;28;20066;-59
2022/06/05 07:32:30;;;;;;;6.07;2.17;;;;;;;6.40;75.95;101031.16;5020771;28;20382;-59
2022/06/05 07:35:06;;;;;;;9.73;3.22;;;;;;;6.55;76.09;101043.44;5020839;28;20332;-61
2022/06/05 07:37:36;;;;;;;7.35;2.47;;;;;;;6.73;75.59;101032.41;5022798;28;20046;-60
2022/06/05 07:40:27;;;;;;;9.35;2.60;;;;;;;6.76;75.19;101048.03;5023164;28;20042;-60
2022/06/05 07:42:57;;;;;;;5.15;2.45;;;;;;;6.83;75.21;101036.84;5021293;28;20092;-58
2022/06/05 07:45:27;;;;;;;6.88;2.53;;;;;;;6.89;74.46;101039.53;5021914;28;20037;-59
2022/06/05 07:47:59;;;;;;;5.93;2.38;;;;;;;6.80;74.64;101034.22;5023188;28;20071;-59
2022/06/05 07:50:32;;;;;;;6.72;2.60;;;;;;;6.77;74.27;101039.41;5025597;28;20057;-59
2022/06/05 07:55:50;;;;;;;7.70;2.67;;;;;;;6.65;74.99;101034.06;5025510;28;20119;-58
2022/06/05 07:58:21;;;;;;;6.22;2.47;;;;;;;6.57;74.58;101033.09;5023631;28;20057;-59
2022/06/05 08:00:51;;;;;;;3.53;2.50;;;;;;;6.39;75.86;101044.09;5024332;28;20803;-59
2022/06/05 08:03:22;;;;;;;7.35;2.83;;;;;;;6.41;75.96;101040.66;5025597;28;20054;-60
2022/06/05 08:05:54;;;;;;;5.47;2.85;;;;;;;6.02;75.28;100969.25;5025435;28;20042;-59
2022/06/05 08:08:24;;;;;;;9.95;2.63;;;;;;;6.41;75.52;101045.84;5024550;28;20311;-60
2022/06/05 08:10:55;;;;;;;4.88;2.65;;;;;;;6.25;75.94;101054.31;5026629;28;20046;-59
2022/06/05 08:13:26;;;;;;;3.85;2.55;;;;;;;6.14;76.46;101014.34;5026371;28;20057;-59
2022/06/05 08:15:56;;;;;;;5.47;2.60;;;;;;;6.16;76.42;101036.88;5025880;28;20068;-60
2022/06/05 08:18:27;;;;;;;3.53;2.70;;;;;;;6.19;76.92;101052.50;5026284;28;20057;-60
2022/06/05 08:20:58;;;;;;;6.78;2.45;;;;;;;6.10;76.37;101054.97;5025640;28;20371;-59
2022/06/05 08:23:29;;;;;;;6.20;2.53;;;;;;;6.05;76.43;101062.66;5025934;28;20120;-60
2022/06/05 08:26:00;;;;;;;3.63;2.83;;;;;;;6.10;76.70;101064.47;5025658;28;20092;-60
2022/06/05 08:28:30;;;;;;;5.70;2.88;;;;;;;6.10;76.42;101054.97;5026018;28;20332;-59
2022/06/05 08:31:00;;;;;;;8.25;3.13;;;;;;;5.95;76.54;101065.13;5025812;28;20037;-60
2022/06/05 08:33:31;;;;;;;5.75;2.90;;;;;;;5.76;76.80;101035.38;5025968;28;20053;-60
2022/06/05 08:36:04;;;;;;;5.68;2.60;;;;;;;5.96;76.87;101067.72;5025834;28;20057;-59
2022/06/05 08:41:38;;;;;;;8.52;2.85;;;;;;;5.91;76.85;101055.50;5025258;28;20100;-59
2022/06/05 08:44:19;;;;;;;11.18;2.50;;;;;;;5.59;77.02;101036.00;5025297;28;20255;-60
2022/06/05 08:46:54;;;;;;;11.15;3.20;;;;;;;5.62;77.37;101061.97;5025968;28;20058;-60
2022/06/05 08:49:40;;;;;;;6.18;2.95;;;;;;;5.64;77.70;101080.13;5025136;28;20059;-59
2022/06/05 08:52:21;;;;;;;5.32;3.00;;;;;;;5.54;78.17;101081.72;5024422;28;20052;-59
2022/06/05 08:54:57;;;;;;;8.52;2.92;;;;;;;5.49;78.43;101085.94;5025515;28;20057;-59
2022/06/05 08:57:33;;;;;;;7.07;3.03;;;;;;;5.33;78.76;101089.09;5024705;28;20571;-59
2022/06/05 09:00:09;;;;;;;7.72;4.25;;;;;;;5.23;79.87;101082.00;5023742;28;20049;-59
2022/06/05 09:02:47;;;;;;;6.03;3.40;;;;;;;5.13;79.83;101075.78;5025540;28;20045;-58
2022/06/05 09:05:25;;;;;;;8.25;3.70;;;;;;;4.92;80.55;101060.72;5025754;28;20279;-59
2022/06/05 09:08:00;;;;;;;4.60;3.83;;;;;;;4.91;81.11;101090.03;5025549;28;20156;-59
2022/06/05 09:10:35;;;;;;;7.45;3.63;;;;;;;4.78;81.44;101093.22;5024534;28;20344;-58
2022/06/05 09:13:11;;;;;;;4.88;3.58;;;;;;;4.89;81.80;101102.06;5023350;28;20279;-59
2022/06/05 09:15:46;;;;;;;5.57;3.55;;;;;;;4.54;82.18;101053.03;5023477;28;20263;-58
2022/06/05 09:18:19;;;;;;;4.88;3.45;;;;;;;4.65;82.08;101082.59;5024278;28;20544;-59
2022/06/05 09:20:55;;;;;;;9.02;4.90;;;;;;;4.75;82.91;101097.47;5024084;28;20065;-59
2022/06/05 09:23:35;;;;;;;10.02;4.13;;;;;;;4.65;82.54;101103.31;5024078;28;20108;-59
2022/06/05 09:26:11;;;;;;;5.70;4.32;;;;;;;4.51;83.41;101108.19;5025065;28;20067;-59
2022/06/05 09:29:10;;;;;;;5.22;3.85;;;;;;;4.42;83.56;101099.34;5023263;28;20076;-59
2022/06/05 09:32:12;;;;;;;8.45;4.80;;;;;;;4.32;84.40;101099.16;5023032;28;20084;-59
2022/06/05 09:34:49;;;;;;;9.98;3.97;;;;;;;4.24;84.43;101090.34;5024692;28;20050;-59
2022/06/05 09:37:25;;;;;;;11.63;4.50;;;;;;;4.14;84.49;101098.72;5024682;28;20061;-59
2022/06/05 09:40:00;;;;;;;6.93;4.57;;;;;;;3.83;85.29;101056.63;5025355;28;20112;-60
2022/06/05 09:42:59;;;;;;;12.02;5.40;;;;;;;4.00;85.34;101100.13;5025010;28;20332;-60
2022/06/05 09:45:49;;;;;;;18.15;4.75;;;;;;;3.83;86.25;101091.97;5023382;28;20061;-60
2022/06/05 09:48:30;;;;;;;7.32;5.30;;;;;;;3.73;86.77;101096.03;5022224;28;20073;-60
2022/06/05 09:51:08;;;;;;;11.68;7.07;;;;;;;3.65;87.08;101097.56;5021859;28;20113;-60
2022/06/05 09:53:43;;;;;;;8.70;4.43;;;;;;;3.36;87.02;101050.31;5022975;28;20065;-60
2022/06/05 09:56:28;;;;;;;6.20;4.68;;;;;;;3.56;87.40;101107.66;5023519;28;20069;-60
2022/06/05 09:59:12;;;;;;;9.38;4.95;;;;;;;3.57;87.83;101101.63;5023350;28;20080;-60
2022/06/05 10:01:52;;;;;;;8.73;5.05;;;;;;;3.53;87.84;101102.41;5022884;28;20073;-62
2022/06/05 10:04:22;;;;;;;;;;;;;;;3.50;88.12;101103.22;5022787;28;20066;-60
2022/06/05 10:06:57;;;;;;;7.57;5.10;;;;;;;3.48;88.31;101098.84;5023102;28;20375;-60
2022/06/05 10:09:30;;;;;;;7.75;5.53;;;;;;;3.46;88.73;101097.06;5023097;28;20041;-60
2022/06/05 10:12:07;;;;;;;8.65;5.93;;;;;;;3.46;88.53;101091.91;5023424;28;20041;-60
2022/06/05 10:14:45;;;;;;;10.30;5.28;;;;;;;3.48;88.31;101098.84;5023659;28;20387;-59
2022/06/05 10:17:28;;;;;;;8.90;5.18;;;;;;;3.42;88.91;101099.53;5022570;28;20053;-60
2022/06/05 10:20:10;;;;;;;8.30;5.18;;;;;;;3.32;88.62;101093.28;5024210;28;20058;-60
2022/06/05 10:22:47;;;;;;;10.43;5.35;;;;;;;3.25;89.00;101091.34;5023743;28;20041;-59
2022/06/05 10:25:29;;;;;;;8.85;5.53;;;;;;;3.24;89.50;101099.91;5023743;28;20045;-59
2022/06/05 10:28:06;;;;;;;6.78;5.43;;;;;;;3.22;89.73;101097.31;5022021;28;20046;-59
2022/06/05 10:30:42;;;;;;;9.07;5.85;;;;;;;2.74;90.05;101019.38;5022910;28;20049;-60
2022/06/05 10:33:19;;;;;;;9.18;6.03;;;;;;;3.23;90.25;101093.03;5023855;28;20077;-59
2022/06/05 10:35:59;;;;;;;9.10;6.15;;;;;;;3.23;89.98;101095.59;5023726;28;20120;-60
2022/06/05 10:38:38;;;;;;;;;;;;;;;3.21;90.07;101102.44;5024202;28;20059;-60
2022/06/05 10:41:20;;;;;;;8.65;5.70;;;;;;;3.23;90.25;101103.34;5023046;28;20463;-59
2022/06/05 10:44:12;;;;;;;10.68;5.20;;;;;;;3.25;90.12;101101.69;5023538;28;20067;-59
2022/06/05 10:46:56;;;;;;;10.10;6.63;;;;;;;3.13;89.93;101101.34;5023692;28;20076;-59
2022/06/05 10:49:35;;;;;;;10.05;6.55;;;;;;;3.11;90.06;101111.63;5023215;28;20100;-60
2022/06/05 10:52:18;;;;;;;14.13;7.15;;;;;;;3.03;90.68;101111.41;5022661;28;20050;-59
2022/06/05 10:54:57;;;;;;;16.23;7.18;;;;;;;2.96;90.70;101106.03;5023513;28;20442;-59
2022/06/05 10:57:34;;;;;;;12.18;7.18;;;;;;;2.64;90.92;101058.66;5022928;28;20420;-59
2022/06/05 11:00:19;;;;;;;16.67;7.22;;;;;;;2.98;90.97;101113.00;5021864;28;20045;-59
2022/06/05 11:03:11;;;;;;;10.25;6.55;;;;;;;3.03;91.29;101106.25;5023524;28;20076;-59
2022/06/05 11:05:53;;;;;;;9.15;6.40;;;;;;;2.92;90.66;101106.78;5022011;28;20064;-60
2022/06/05 11:08:32;;;;;;;13.60;7.75;;;;;;;2.75;90.85;101088.25;5022950;28;20092;-60
2022/06/05 11:14:20;;;;;;;11.05;7.82;;;;;;;2.76;91.15;101108.06;5023547;28;20482;-59
2022/06/05 11:17:25;;;;;;;13.55;7.70;;;;;;;2.83;91.33;101122.91;5023035;28;20061;-59
2022/06/05 11:20:08;;;;;;;13.43;7.80;;;;;;;2.89;91.50;101123.06;5023581;28;20127;-59
2022/06/05 11:22:54;;;;;;;12.07;7.63;;;;;;;2.83;91.70;101112.56;5025508;28;20359;-60
2022/06/05 11:25:28;;;;;;;12.40;7.10;;;;;;;2.89;91.38;101120.47;5027074;28;20398;-60
2022/06/05 11:28:22;;;;;;;11.80;7.65;;;;;;;2.83;91.59;101112.56;5026627;28;20213;-60
2022/06/05 11:31:11;;;;;;;12.68;6.25;;;;;;;2.78;91.56;101116.72;5025905;28;20080;-58
2022/06/05 11:33:50;;;;;;;9.60;6.45;;;;;;;2.69;92.10;101114.75;5026328;28;20351;-58
2022/06/05 11:36:25;;;;;;;10.27;7.50;;;;;;;2.69;92.05;101113.88;5026802;28;20058;-59
2022/06/05 11:39:15;;;;;;;15.23;7.63;;;;;;;2.65;92.28;101117.22;5027074;28;20092;-59
2022/06/05 11:41:53;;;;;;;12.40;7.90;;;;;;;2.64;92.31;101120.59;5027118;28;20050;-59
2022/06/05 11:44:38;;;;;;;18.35;8.80;;;;;;;2.61;92.44;101117.94;5027245;28;20045;-60
2022/06/05 11:47:10;;;;;;;16.08;9.48;;;;;;;2.07;92.61;101029.53;5026778;28;20084;-59
2022/06/05 11:50:03;;;;;;;17.13;9.02;;;;;;;2.61;92.87;101110.19;5026312;28;20359;-59
2022/06/05 11:52:41;;;;;;;12.77;7.63;;;;;;;2.62;92.73;101109.34;5026965;28;20065;-59
2022/06/05 11:55:26;;;;;;;12.15;7.68;;;;;;;2.51;92.59;101099.59;5026050;28;20053;-59
2022/06/05 11:58:03;;;;;;;16.33;8.27;;;;;;;2.49;92.90;101116.72;5026545;28;20057;-61
2022/06/05 12:00:38;;;;;;;13.27;9.02;;;;;;;2.45;92.89;101109.75;5025378;28;20391;-59
2022/06/05 12:03:16;;;;;;;14.07;9.25;;;;;;;2.45;93.19;101109.75;5025032;28;20049;-59
2022/06/05 12:05:58;;;;;;;14.30;8.00;;;;;;;2.44;93.20;101107.97;5025998;28;20049;-59
2022/06/05 12:08:36;;;;;;;12.88;8.23;;;;;;;2.30;93.54;101078.34;5025794;28;20124;-59
2022/06/05 12:11:10;;;;;;;21.20;8.38;;;;;;;1.74;93.30;100988.09;5025705;28;20116;-59
2022/06/05 12:13:54;;;;;;;14.82;8.90;;;;;;;2.41;93.73;101102.72;5026669;28;20124;-60
2022/06/05 12:16:34;;;;;;;21.45;8.77;;;;;;;2.42;92.89;101109.66;5025991;28;20061;-60
2022/06/05 12:19:14;;;;;;;20.23;9.23;;;;;;;2.42;93.35;101109.66;5026509;28;20100;-59
2022/06/05 12:22:03;;;;;;;25.10;8.53;;;;;;;2.35;93.38;101099.97;5026218;28;20045;-60
2022/06/05 12:24:41;;;;;;;40.00;8.85;;;;;;;2.37;93.23;101100.88;5024733;28;20297;-59